Skip Navigation Links Skip Navigation Links

Current Weather

Zinder, Niger

For information only: do not use for flight planning or navigation.
Latest weather
Observation time Friday, December 3, 2021 10:00 AM WAT
Local time Friday, December 3, 2021 11:20 AM WAT
Flight conditions Low Instrument Meteorological Conditions
Winds
Wind direction East (90°)
Winds variable from 70° to 130°
Wind speed 14 mph
Visibility 0.4 mi.
Present weather dust
Sky condition
Ceiling unlimited
Temperature 79°F
Dewpoint 37°F
Altimeter 30.00 in.Hg
Derived measurements
Relative humidity 23%
Heat index 79°F
Density altitude 1748 ft.
METAR DRZR 030900Z 09012KT 070V130 0600 DU NSC 26/03 Q1016

Settings

Location code

InnerDrive.Weather 4.0.6770.0 Release CLR 4.0.30319.42000
Copyright ©2018 Inner Drive Technology. All rights reserved. Portions Copyright ©1986-2018 David Braverman.

Find weather

Site navigation


Skip Navigation Links

Place info

Page info

PayPal - The safer, easier way to pay online!

Return home.

Copyright ©2021 Inner Drive Technology. Purveyors of fine, hand-crafted computer software. Page printed 2021-12-03T10:20:09 UTC.